MCB Quantico, Virginia
Current Conditions -  °F | °C
As of 9:56 PM on Wednesday 22 Oct 2014 (Local Time) from KNYG Reporting Station
Overcast Overcast  
Wind Chill: 55°   Ceiling: 4000
Heat Index: 55°   Visibility: 10mi
Dew Point: 43°   Wind: 18mph
Humidity: 64%   Direction: 340°NNW
Pressure: 29.98"   Gusts: 32mph
Location:  38.58°N, 77.4441°W
Report Text: KNYG 230156Z AUTO 34016G28KT 10SM OVC040 13/06 A2998 RMK AO2 PK WND 35028/0153 SLP151 T01280061 $
Loading
Personal Weather Stations






























Interactive Weather Map
Tropical Storm Tracking
New forecast layout! Learn more

10-Day Weather Forecast

Advertisements
Track Severe Weather on mobile